sensor_id;sensor_type;location;lat;lon;timestamp;P1;durP1;ratioP1;P2;durP2;ratioP2
18657;SDS011;9458;50.942;5.074;2023-04-08T00:01:12;17.27;;;8.15;;
18657;SDS011;9458;50.942;5.074;2023-04-08T00:03:44;12.25;;;7.40;;
18657;SDS011;9458;50.942;5.074;2023-04-08T00:06:11;12.15;;;7.82;;
18657;SDS011;9458;50.942;5.074;2023-04-08T00:08:46;14.10;;;7.35;;
18657;SDS011;9458;50.942;5.074;2023-04-08T00:11:15;17.55;;;8.10;;
18657;SDS011;9458;50.942;5.074;2023-04-08T00:13:45;15.23;;;8.18;;
18657;SDS011;9458;50.942;5.074;2023-04-08T00:16:23;20.50;;;8.00;;
18657;SDS011;9458;50.942;5.074;2023-04-08T00:18:52;13.10;;;8.43;;
18657;SDS011;9458;50.942;5.074;2023-04-08T00:21:22;15.88;;;8.43;;
18657;SDS011;9458;50.942;5.074;2023-04-08T00:23:55;14.40;;;8.60;;
18657;SDS011;9458;50.942;5.074;2023-04-08T00:26:24;15.98;;;8.35;;
18657;SDS011;9458;50.942;5.074;2023-04-08T00:28:52;15.98;;;9.10;;
18657;SDS011;9458;50.942;5.074;2023-04-08T00:31:20;15.65;;;7.82;;
18657;SDS011;9458;50.942;5.074;2023-04-08T00:33:47;19.92;;;8.88;;
18657;SDS011;9458;50.942;5.074;2023-04-08T00:36:16;15.93;;;8.40;;
18657;SDS011;9458;50.942;5.074;2023-04-08T00:38:44;17.80;;;8.43;;
18657;SDS011;9458;50.942;5.074;2023-04-08T00:41:14;14.60;;;8.13;;
18657;SDS011;9458;50.942;5.074;2023-04-08T00:43:43;17.02;;;8.52;;
18657;SDS011;9458;50.942;5.074;2023-04-08T00:46:11;18.60;;;8.85;;
18657;SDS011;9458;50.942;5.074;2023-04-08T00:48:38;15.73;;;8.93;;
18657;SDS011;9458;50.942;5.074;2023-04-08T00:51:07;14.57;;;8.60;;
18657;SDS011;9458;50.942;5.074;2023-04-08T00:53:35;16.30;;;8.68;;
18657;SDS011;9458;50.942;5.074;2023-04-08T00:56:02;23.48;;;9.50;;
18657;SDS011;9458;50.942;5.074;2023-04-08T00:58:30;18.40;;;9.23;;
18657;SDS011;9458;50.942;5.074;2023-04-08T01:01:02;18.55;;;8.93;;
18657;SDS011;9458;50.942;5.074;2023-04-08T01:03:37;13.02;;;9.13;;
18657;SDS011;9458;50.942;5.074;2023-04-08T01:06:14;17.92;;;8.93;;
18657;SDS011;9458;50.942;5.074;2023-04-08T01:08:48;19.48;;;9.30;;
18657;SDS011;9458;50.942;5.074;2023-04-08T01:11:17;19.42;;;9.10;;
18657;SDS011;9458;50.942;5.074;2023-04-08T01:13:47;19.73;;;9.68;;
18657;SDS011;9458;50.942;5.074;2023-04-08T01:16:19;21.80;;;10.50;;
18657;SDS011;9458;50.942;5.074;2023-04-08T01:18:50;17.08;;;10.02;;
18657;SDS011;9458;50.942;5.074;2023-04-08T01:21:19;20.02;;;10.85;;
18657;SDS011;9458;50.942;5.074;2023-04-08T01:23:52;17.25;;;11.50;;
18657;SDS011;9458;50.942;5.074;2023-04-08T01:26:27;22.33;;;11.93;;
18657;SDS011;9458;50.942;5.074;2023-04-08T01:28:56;20.38;;;11.45;;
18657;SDS011;9458;50.942;5.074;2023-04-08T01:31:26;20.45;;;10.98;;
18657;SDS011;9458;50.942;5.074;2023-04-08T01:33:57;19.92;;;11.52;;
18657;SDS011;9458;50.942;5.074;2023-04-08T01:36:25;20.85;;;10.77;;
18657;SDS011;9458;50.942;5.074;2023-04-08T01:38:57;26.95;;;11.55;;
18657;SDS011;9458;50.942;5.074;2023-04-08T01:41:27;16.80;;;10.93;;
18657;SDS011;9458;50.942;5.074;2023-04-08T01:43:56;26.35;;;11.15;;
18657;SDS011;9458;50.942;5.074;2023-04-08T01:46:25;19.35;;;11.15;;
18657;SDS011;9458;50.942;5.074;2023-04-08T01:48:53;23.48;;;11.57;;
18657;SDS011;9458;50.942;5.074;2023-04-08T01:51:22;17.77;;;11.38;;
18657;SDS011;9458;50.942;5.074;2023-04-08T01:53:52;17.30;;;10.57;;
18657;SDS011;9458;50.942;5.074;2023-04-08T01:56:20;24.65;;;11.50;;
18657;SDS011;9458;50.942;5.074;2023-04-08T01:58:50;23.70;;;11.68;;
18657;SDS011;9458;50.942;5.074;2023-04-08T02:01:21;23.58;;;12.32;;
18657;SDS011;9458;50.942;5.074;2023-04-08T02:04:00;23.83;;;12.95;;
18657;SDS011;9458;50.942;5.074;2023-04-08T02:06:29;30.60;;;12.45;;
18657;SDS011;9458;50.942;5.074;2023-04-08T02:08:58;20.88;;;11.60;;
18657;SDS011;9458;50.942;5.074;2023-04-08T02:11:26;18.83;;;12.25;;
18657;SDS011;9458;50.942;5.074;2023-04-08T02:13:56;27.23;;;12.90;;
18657;SDS011;9458;50.942;5.074;2023-04-08T02:16:26;24.85;;;13.13;;
18657;SDS011;9458;50.942;5.074;2023-04-08T02:19:01;17.33;;;11.45;;
18657;SDS011;9458;50.942;5.074;2023-04-08T02:21:41;20.10;;;11.60;;
18657;SDS011;9458;50.942;5.074;2023-04-08T02:24:14;24.23;;;12.27;;
18657;SDS011;9458;50.942;5.074;2023-04-08T02:26:43;22.02;;;12.15;;
18657;SDS011;9458;50.942;5.074;2023-04-08T02:29:14;29.88;;;12.65;;
18657;SDS011;9458;50.942;5.074;2023-04-08T02:31:43;28.67;;;12.77;;
18657;SDS011;9458;50.942;5.074;2023-04-08T02:34:12;24.00;;;12.95;;
18657;SDS011;9458;50.942;5.074;2023-04-08T02:36:41;24.88;;;13.30;;
18657;SDS011;9458;50.942;5.074;2023-04-08T02:39:10;26.08;;;13.27;;
18657;SDS011;9458;50.942;5.074;2023-04-08T02:41:37;22.38;;;13.18;;
18657;SDS011;9458;50.942;5.074;2023-04-08T02:44:05;25.35;;;13.07;;
18657;SDS011;9458;50.942;5.074;2023-04-08T02:46:34;23.70;;;13.35;;
18657;SDS011;9458;50.942;5.074;2023-04-08T02:49:01;26.27;;;12.75;;
18657;SDS011;9458;50.942;5.074;2023-04-08T02:51:29;26.42;;;13.60;;
18657;SDS011;9458;50.942;5.074;2023-04-08T02:53:57;26.80;;;13.02;;
18657;SDS011;9458;50.942;5.074;2023-04-08T02:56:24;26.33;;;14.60;;
18657;SDS011;9458;50.942;5.074;2023-04-08T02:58:52;22.80;;;13.05;;
18657;SDS011;9458;50.942;5.074;2023-04-08T03:01:20;23.33;;;14.40;;
18657;SDS011;9458;50.942;5.074;2023-04-08T03:03:49;24.92;;;14.57;;
18657;SDS011;9458;50.942;5.074;2023-04-08T03:06:17;30.90;;;14.60;;
18657;SDS011;9458;50.942;5.074;2023-04-08T03:08:45;27.40;;;14.23;;
18657;SDS011;9458;50.942;5.074;2023-04-08T03:11:13;23.00;;;14.63;;
18657;SDS011;9458;50.942;5.074;2023-04-08T03:13:41;36.65;;;15.13;;
18657;SDS011;9458;50.942;5.074;2023-04-08T03:16:08;28.10;;;14.40;;
18657;SDS011;9458;50.942;5.074;2023-04-08T03:18:37;25.92;;;14.73;;
18657;SDS011;9458;50.942;5.074;2023-04-08T03:21:06;23.35;;;14.82;;
18657;SDS011;9458;50.942;5.074;2023-04-08T03:23:33;28.40;;;15.43;;
18657;SDS011;9458;50.942;5.074;2023-04-08T03:26:00;26.58;;;14.57;;
18657;SDS011;9458;50.942;5.074;2023-04-08T03:28:28;34.70;;;14.90;;
18657;SDS011;9458;50.942;5.074;2023-04-08T03:30:57;32.28;;;15.95;;
18657;SDS011;9458;50.942;5.074;2023-04-08T03:33:25;29.75;;;15.02;;
18657;SDS011;9458;50.942;5.074;2023-04-08T03:35:53;24.60;;;14.23;;
18657;SDS011;9458;50.942;5.074;2023-04-08T03:38:23;30.83;;;14.80;;
18657;SDS011;9458;50.942;5.074;2023-04-08T03:40:50;34.55;;;15.02;;
18657;SDS011;9458;50.942;5.074;2023-04-08T03:43:18;25.92;;;14.40;;
18657;SDS011;9458;50.942;5.074;2023-04-08T03:45:46;27.15;;;14.30;;
18657;SDS011;9458;50.942;5.074;2023-04-08T03:48:13;24.98;;;14.77;;
18657;SDS011;9458;50.942;5.074;2023-04-08T03:50:41;27.10;;;14.52;;
18657;SDS011;9458;50.942;5.074;2023-04-08T03:53:11;27.98;;;15.45;;
18657;SDS011;9458;50.942;5.074;2023-04-08T03:55:40;28.50;;;14.02;;
18657;SDS011;9458;50.942;5.074;2023-04-08T03:58:07;30.90;;;15.07;;
18657;SDS011;9458;50.942;5.074;2023-04-08T04:00:35;28.85;;;15.10;;
18657;SDS011;9458;50.942;5.074;2023-04-08T04:03:03;29.33;;;15.30;;
18657;SDS011;9458;50.942;5.074;2023-04-08T04:05:30;27.75;;;14.50;;
18657;SDS011;9458;50.942;5.074;2023-04-08T04:07:57;23.90;;;15.02;;
18657;SDS011;9458;50.942;5.074;2023-04-08T04:10:26;21.73;;;14.15;;
18657;SDS011;9458;50.942;5.074;2023-04-08T04:12:55;25.25;;;14.25;;
18657;SDS011;9458;50.942;5.074;2023-04-08T04:15:22;27.75;;;14.88;;
18657;SDS011;9458;50.942;5.074;2023-04-08T04:17:50;26.80;;;14.23;;
18657;SDS011;9458;50.942;5.074;2023-04-08T04:20:20;28.27;;;13.52;;
18657;SDS011;9458;50.942;5.074;2023-04-08T04:22:50;26.95;;;13.50;;
18657;SDS011;9458;50.942;5.074;2023-04-08T04:25:18;25.98;;;13.65;;
18657;SDS011;9458;50.942;5.074;2023-04-08T04:27:45;27.00;;;13.20;;
18657;SDS011;9458;50.942;5.074;2023-04-08T04:30:14;22.63;;;13.18;;
18657;SDS011;9458;50.942;5.074;2023-04-08T04:32:43;28.30;;;13.32;;
18657;SDS011;9458;50.942;5.074;2023-04-08T04:35:11;27.45;;;12.77;;
18657;SDS011;9458;50.942;5.074;2023-04-08T04:37:39;21.70;;;12.50;;
18657;SDS011;9458;50.942;5.074;2023-04-08T04:40:07;23.35;;;12.68;;
18657;SDS011;9458;50.942;5.074;2023-04-08T04:42:34;23.83;;;13.20;;
18657;SDS011;9458;50.942;5.074;2023-04-08T04:45:02;25.17;;;12.73;;
18657;SDS011;9458;50.942;5.074;2023-04-08T04:47:33;27.63;;;12.63;;
18657;SDS011;9458;50.942;5.074;2023-04-08T04:50:01;23.55;;;12.88;;
18657;SDS011;9458;50.942;5.074;2023-04-08T04:52:28;27.17;;;12.95;;
18657;SDS011;9458;50.942;5.074;2023-04-08T04:54:56;26.05;;;13.25;;
18657;SDS011;9458;50.942;5.074;2023-04-08T04:57:23;24.67;;;13.55;;
18657;SDS011;9458;50.942;5.074;2023-04-08T04:59:51;26.25;;;13.00;;
18657;SDS011;9458;50.942;5.074;2023-04-08T05:02:18;27.73;;;14.65;;
18657;SDS011;9458;50.942;5.074;2023-04-08T05:04:50;26.63;;;13.73;;
18657;SDS011;9458;50.942;5.074;2023-04-08T05:07:17;30.05;;;14.38;;
18657;SDS011;9458;50.942;5.074;2023-04-08T05:09:46;26.80;;;14.02;;
18657;SDS011;9458;50.942;5.074;2023-04-08T05:12:13;29.40;;;14.48;;
18657;SDS011;9458;50.942;5.074;2023-04-08T05:14:41;25.92;;;14.40;;
18657;SDS011;9458;50.942;5.074;2023-04-08T05:17:08;29.73;;;13.70;;
18657;SDS011;9458;50.942;5.074;2023-04-08T05:19:37;22.95;;;12.85;;
18657;SDS011;9458;50.942;5.074;2023-04-08T05:22:06;29.67;;;15.93;;
18657;SDS011;9458;50.942;5.074;2023-04-08T05:24:34;27.90;;;13.82;;
18657;SDS011;9458;50.942;5.074;2023-04-08T05:27:02;23.50;;;13.60;;
18657;SDS011;9458;50.942;5.074;2023-04-08T05:29:30;30.17;;;14.52;;
18657;SDS011;9458;50.942;5.074;2023-04-08T05:31:57;28.98;;;13.80;;
18657;SDS011;9458;50.942;5.074;2023-04-08T05:34:25;29.25;;;13.23;;
18657;SDS011;9458;50.942;5.074;2023-04-08T05:36:52;21.00;;;12.35;;
18657;SDS011;9458;50.942;5.074;2023-04-08T05:39:21;26.75;;;12.25;;
18657;SDS011;9458;50.942;5.074;2023-04-08T05:41:49;25.20;;;13.10;;
18657;SDS011;9458;50.942;5.074;2023-04-08T05:44:17;30.10;;;13.90;;
18657;SDS011;9458;50.942;5.074;2023-04-08T05:46:44;25.25;;;13.35;;
18657;SDS011;9458;50.942;5.074;2023-04-08T05:49:12;25.60;;;13.35;;
18657;SDS011;9458;50.942;5.074;2023-04-08T05:51:39;26.88;;;14.52;;
18657;SDS011;9458;50.942;5.074;2023-04-08T05:54:07;29.92;;;14.15;;
18657;SDS011;9458;50.942;5.074;2023-04-08T05:56:36;29.10;;;15.93;;
18657;SDS011;9458;50.942;5.074;2023-04-08T05:59:03;32.65;;;15.60;;
18657;SDS011;9458;50.942;5.074;2023-04-08T06:01:31;32.22;;;15.38;;
18657;SDS011;9458;50.942;5.074;2023-04-08T06:04:09;35.50;;;17.48;;
18657;SDS011;9458;50.942;5.074;2023-04-08T06:06:37;34.45;;;16.65;;
18657;SDS011;9458;50.942;5.074;2023-04-08T06:09:06;29.58;;;16.45;;
18657;SDS011;9458;50.942;5.074;2023-04-08T06:11:39;33.03;;;16.38;;
18657;SDS011;9458;50.942;5.074;2023-04-08T06:14:07;33.08;;;15.77;;
18657;SDS011;9458;50.942;5.074;2023-04-08T06:16:34;26.25;;;15.15;;
18657;SDS011;9458;50.942;5.074;2023-04-08T06:19:02;29.30;;;15.30;;
18657;SDS011;9458;50.942;5.074;2023-04-08T06:21:29;26.58;;;14.55;;
18657;SDS011;9458;50.942;5.074;2023-04-08T06:23:56;29.40;;;15.52;;
18657;SDS011;9458;50.942;5.074;2023-04-08T06:26:24;24.67;;;14.10;;
18657;SDS011;9458;50.942;5.074;2023-04-08T06:28:54;19.95;;;13.93;;
18657;SDS011;9458;50.942;5.074;2023-04-08T06:31:22;23.67;;;13.98;;
18657;SDS011;9458;50.942;5.074;2023-04-08T06:33:50;22.05;;;13.48;;
18657;SDS011;9458;50.942;5.074;2023-04-08T06:36:18;21.95;;;13.48;;
18657;SDS011;9458;50.942;5.074;2023-04-08T06:38:45;24.73;;;13.43;;
18657;SDS011;9458;50.942;5.074;2023-04-08T06:41:12;18.58;;;12.63;;
18657;SDS011;9458;50.942;5.074;2023-04-08T06:43:40;20.08;;;13.95;;
18657;SDS011;9458;50.942;5.074;2023-04-08T06:46:08;21.15;;;13.73;;
18657;SDS011;9458;50.942;5.074;2023-04-08T06:48:36;22.20;;;14.73;;
18657;SDS011;9458;50.942;5.074;2023-04-08T06:51:03;19.20;;;13.43;;
18657;SDS011;9458;50.942;5.074;2023-04-08T06:53:32;24.23;;;16.00;;
18657;SDS011;9458;50.942;5.074;2023-04-08T06:56:00;22.45;;;17.05;;
18657;SDS011;9458;50.942;5.074;2023-04-08T06:58:27;21.63;;;14.75;;
18657;SDS011;9458;50.942;5.074;2023-04-08T07:00:55;17.13;;;13.27;;
18657;SDS011;9458;50.942;5.074;2023-04-08T07:03:31;19.15;;;12.00;;
18657;SDS011;9458;50.942;5.074;2023-04-08T07:05:59;19.85;;;14.15;;
18657;SDS011;9458;50.942;5.074;2023-04-08T07:08:28;18.83;;;11.60;;
18657;SDS011;9458;50.942;5.074;2023-04-08T07:10:55;19.65;;;12.13;;
18657;SDS011;9458;50.942;5.074;2023-04-08T07:13:26;16.63;;;11.95;;
18657;SDS011;9458;50.942;5.074;2023-04-08T07:15:55;14.75;;;11.38;;
18657;SDS011;9458;50.942;5.074;2023-04-08T07:18:23;17.98;;;13.35;;
18657;SDS011;9458;50.942;5.074;2023-04-08T07:20:52;18.98;;;14.10;;
18657;SDS011;9458;50.942;5.074;2023-04-08T07:23:21;24.52;;;15.10;;
18657;SDS011;9458;50.942;5.074;2023-04-08T07:25:48;21.40;;;13.63;;
18657;SDS011;9458;50.942;5.074;2023-04-08T07:28:15;19.15;;;13.88;;
18657;SDS011;9458;50.942;5.074;2023-04-08T07:30:43;18.17;;;13.88;;
18657;SDS011;9458;50.942;5.074;2023-04-08T07:33:10;21.60;;;14.18;;
18657;SDS011;9458;50.942;5.074;2023-04-08T07:35:38;17.83;;;13.70;;
18657;SDS011;9458;50.942;5.074;2023-04-08T07:38:08;20.00;;;12.48;;
18657;SDS011;9458;50.942;5.074;2023-04-08T07:40:37;16.83;;;12.65;;
18657;SDS011;9458;50.942;5.074;2023-04-08T07:43:05;17.33;;;13.10;;
18657;SDS011;9458;50.942;5.074;2023-04-08T07:45:34;18.98;;;13.32;;
18657;SDS011;9458;50.942;5.074;2023-04-08T07:48:02;20.02;;;14.43;;
18657;SDS011;9458;50.942;5.074;2023-04-08T07:50:29;23.67;;;14.30;;
18657;SDS011;9458;50.942;5.074;2023-04-08T07:52:57;20.85;;;13.68;;
18657;SDS011;9458;50.942;5.074;2023-04-08T07:55:28;19.17;;;14.05;;
18657;SDS011;9458;50.942;5.074;2023-04-08T07:58:00;22.38;;;13.75;;
18657;SDS011;9458;50.942;5.074;2023-04-08T08:00:28;23.27;;;14.85;;
18657;SDS011;9458;50.942;5.074;2023-04-08T08:02:56;23.08;;;14.40;;
18657;SDS011;9458;50.942;5.074;2023-04-08T08:05:23;22.80;;;14.43;;
18657;SDS011;9458;50.942;5.074;2023-04-08T08:07:51;19.95;;;13.82;;
18657;SDS011;9458;50.942;5.074;2023-04-08T08:10:20;19.75;;;13.20;;
18657;SDS011;9458;50.942;5.074;2023-04-08T08:12:49;18.08;;;11.45;;
18657;SDS011;9458;50.942;5.074;2023-04-08T08:15:20;15.48;;;10.13;;
18657;SDS011;9458;50.942;5.074;2023-04-08T08:17:48;15.75;;;12.60;;
18657;SDS011;9458;50.942;5.074;2023-04-08T08:20:15;19.08;;;12.48;;
18657;SDS011;9458;50.942;5.074;2023-04-08T08:22:43;17.02;;;12.32;;
18657;SDS011;9458;50.942;5.074;2023-04-08T08:25:11;19.35;;;13.15;;
18657;SDS011;9458;50.942;5.074;2023-04-08T08:27:39;19.95;;;13.52;;
18657;SDS011;9458;50.942;5.074;2023-04-08T08:30:10;17.33;;;13.65;;
18657;SDS011;9458;50.942;5.074;2023-04-08T08:32:37;22.00;;;14.43;;
18657;SDS011;9458;50.942;5.074;2023-04-08T08:35:05;21.67;;;14.52;;
18657;SDS011;9458;50.942;5.074;2023-04-08T08:37:33;17.20;;;12.50;;
18657;SDS011;9458;50.942;5.074;2023-04-08T08:40:00;21.80;;;13.52;;
18657;SDS011;9458;50.942;5.074;2023-04-08T08:42:29;20.63;;;13.73;;
18657;SDS011;9458;50.942;5.074;2023-04-08T08:44:56;21.95;;;14.65;;
18657;SDS011;9458;50.942;5.074;2023-04-08T08:47:29;22.23;;;13.95;;
18657;SDS011;9458;50.942;5.074;2023-04-08T08:49:57;18.92;;;14.23;;
18657;SDS011;9458;50.942;5.074;2023-04-08T08:52:25;20.13;;;13.73;;
18657;SDS011;9458;50.942;5.074;2023-04-08T08:54:56;19.05;;;13.48;;
18657;SDS011;9458;50.942;5.074;2023-04-08T08:57:26;21.40;;;13.95;;
18657;SDS011;9458;50.942;5.074;2023-04-08T08:59:57;20.88;;;13.68;;
18657;SDS011;9458;50.942;5.074;2023-04-08T09:02:26;19.17;;;12.68;;
18657;SDS011;9458;50.942;5.074;2023-04-08T09:04:59;19.92;;;14.02;;
18657;SDS011;9458;50.942;5.074;2023-04-08T09:07:28;19.15;;;13.82;;
18657;SDS011;9458;50.942;5.074;2023-04-08T09:09:56;20.73;;;14.27;;
18657;SDS011;9458;50.942;5.074;2023-04-08T09:12:25;19.90;;;14.27;;
18657;SDS011;9458;50.942;5.074;2023-04-08T09:15:04;18.17;;;14.18;;
18657;SDS011;9458;50.942;5.074;2023-04-08T09:17:33;19.35;;;13.52;;
18657;SDS011;9458;50.942;5.074;2023-04-08T09:20:08;20.88;;;13.93;;
18657;SDS011;9458;50.942;5.074;2023-04-08T09:22:55;20.92;;;14.10;;
18657;SDS011;9458;50.942;5.074;2023-04-08T09:25:25;18.98;;;14.18;;
18657;SDS011;9458;50.942;5.074;2023-04-08T09:27:53;19.15;;;14.65;;
18657;SDS011;9458;50.942;5.074;2023-04-08T09:30:22;18.10;;;13.93;;
18657;SDS011;9458;50.942;5.074;2023-04-08T09:32:50;19.05;;;14.25;;
18657;SDS011;9458;50.942;5.074;2023-04-08T09:35:20;20.27;;;15.18;;
18657;SDS011;9458;50.942;5.074;2023-04-08T09:37:49;23.50;;;14.90;;
18657;SDS011;9458;50.942;5.074;2023-04-08T09:40:17;23.30;;;15.43;;
18657;SDS011;9458;50.942;5.074;2023-04-08T09:42:45;23.10;;;14.75;;
18657;SDS011;9458;50.942;5.074;2023-04-08T09:45:16;22.45;;;15.55;;
18657;SDS011;9458;50.942;5.074;2023-04-08T09:47:51;18.30;;;14.40;;
18657;SDS011;9458;50.942;5.074;2023-04-08T09:50:25;21.33;;;14.52;;
18657;SDS011;9458;50.942;5.074;2023-04-08T09:52:59;18.10;;;13.70;;
18657;SDS011;9458;50.942;5.074;2023-04-08T09:55:29;20.85;;;15.02;;
18657;SDS011;9458;50.942;5.074;2023-04-08T09:58:02;20.90;;;15.25;;
18657;SDS011;9458;50.942;5.074;2023-04-08T10:00:39;17.02;;;14.27;;
18657;SDS011;9458;50.942;5.074;2023-04-08T10:03:26;20.85;;;15.10;;
18657;SDS011;9458;50.942;5.074;2023-04-08T10:06:00;18.17;;;14.45;;
18657;SDS011;9458;50.942;5.074;2023-04-08T10:08:29;18.15;;;14.38;;
18657;SDS011;9458;50.942;5.074;2023-04-08T10:10:57;18.05;;;14.80;;
18657;SDS011;9458;50.942;5.074;2023-04-08T10:13:26;18.60;;;15.05;;
18657;SDS011;9458;50.942;5.074;2023-04-08T10:16:16;17.40;;;15.57;;
18657;SDS011;9458;50.942;5.074;2023-04-08T10:18:45;17.98;;;15.70;;
18657;SDS011;9458;50.942;5.074;2023-04-08T10:24:12;12.23;;;10.93;;
18657;SDS011;9458;50.942;5.074;2023-04-08T10:26:41;14.77;;;11.38;;
18657;SDS011;9458;50.942;5.074;2023-04-08T10:29:31;17.50;;;13.50;;
18657;SDS011;9458;50.942;5.074;2023-04-08T10:31:59;18.05;;;12.73;;
18657;SDS011;9458;50.942;5.074;2023-04-08T10:34:27;17.27;;;13.43;;
18657;SDS011;9458;50.942;5.074;2023-04-08T10:36:58;16.35;;;13.27;;
18657;SDS011;9458;50.942;5.074;2023-04-08T10:39:28;18.45;;;15.02;;
18657;SDS011;9458;50.942;5.074;2023-04-08T10:41:57;18.15;;;14.93;;
18657;SDS011;9458;50.942;5.074;2023-04-08T10:44:28;19.13;;;14.13;;
18657;SDS011;9458;50.942;5.074;2023-04-08T10:46:55;16.63;;;14.10;;
18657;SDS011;9458;50.942;5.074;2023-04-08T10:49:30;21.50;;;16.65;;
18657;SDS011;9458;50.942;5.074;2023-04-08T10:52:05;25.35;;;17.95;;
18657;SDS011;9458;50.942;5.074;2023-04-08T10:54:35;23.45;;;18.40;;
18657;SDS011;9458;50.942;5.074;2023-04-08T10:57:04;25.15;;;18.55;;
18657;SDS011;9458;50.942;5.074;2023-04-08T10:59:34;23.33;;;18.50;;
18657;SDS011;9458;50.942;5.074;2023-04-08T11:02:01;23.00;;;18.95;;
18657;SDS011;9458;50.942;5.074;2023-04-08T11:04:29;24.33;;;17.65;;
18657;SDS011;9458;50.942;5.074;2023-04-08T11:06:56;22.10;;;16.98;;
18657;SDS011;9458;50.942;5.074;2023-04-08T11:09:25;21.85;;;16.50;;
18657;SDS011;9458;50.942;5.074;2023-04-08T11:11:52;24.45;;;17.23;;
18657;SDS011;9458;50.942;5.074;2023-04-08T11:14:22;26.00;;;17.63;;
18657;SDS011;9458;50.942;5.074;2023-04-08T11:16:50;23.40;;;17.40;;
18657;SDS011;9458;50.942;5.074;2023-04-08T11:19:18;24.10;;;16.52;;
18657;SDS011;9458;50.942;5.074;2023-04-08T11:21:47;23.80;;;17.58;;
18657;SDS011;9458;50.942;5.074;2023-04-08T11:24:17;25.35;;;17.60;;
18657;SDS011;9458;50.942;5.074;2023-04-08T11:26:48;23.75;;;17.92;;
18657;SDS011;9458;50.942;5.074;2023-04-08T11:29:17;27.63;;;19.23;;
18657;SDS011;9458;50.942;5.074;2023-04-08T11:31:45;22.33;;;16.85;;
18657;SDS011;9458;50.942;5.074;2023-04-08T11:34:19;23.58;;;17.30;;
18657;SDS011;9458;50.942;5.074;2023-04-08T11:36:49;25.67;;;19.13;;
18657;SDS011;9458;50.942;5.074;2023-04-08T11:39:17;27.52;;;17.98;;
18657;SDS011;9458;50.942;5.074;2023-04-08T11:41:51;26.00;;;17.88;;
18657;SDS011;9458;50.942;5.074;2023-04-08T11:44:19;21.83;;;16.73;;
18657;SDS011;9458;50.942;5.074;2023-04-08T11:46:56;22.63;;;15.75;;
18657;SDS011;9458;50.942;5.074;2023-04-08T11:49:23;21.38;;;16.05;;
18657;SDS011;9458;50.942;5.074;2023-04-08T11:51:54;19.92;;;15.73;;
18657;SDS011;9458;50.942;5.074;2023-04-08T11:54:27;22.88;;;16.45;;
18657;SDS011;9458;50.942;5.074;2023-04-08T11:56:57;21.25;;;16.23;;
18657;SDS011;9458;50.942;5.074;2023-04-08T11:59:27;19.58;;;15.90;;
18657;SDS011;9458;50.942;5.074;2023-04-08T12:01:54;21.48;;;16.10;;
18657;SDS011;9458;50.942;5.074;2023-04-08T12:04:22;22.08;;;16.58;;
18657;SDS011;9458;50.942;5.074;2023-04-08T12:06:49;21.35;;;16.58;;
18657;SDS011;9458;50.942;5.074;2023-04-08T12:09:17;20.10;;;15.85;;
18657;SDS011;9458;50.942;5.074;2023-04-08T12:11:45;23.70;;;16.80;;
18657;SDS011;9458;50.942;5.074;2023-04-08T12:14:14;18.40;;;15.63;;
18657;SDS011;9458;50.942;5.074;2023-04-08T12:16:42;20.80;;;16.23;;
18657;SDS011;9458;50.942;5.074;2023-04-08T12:19:10;22.15;;;17.55;;
18657;SDS011;9458;50.942;5.074;2023-04-08T12:21:37;19.45;;;15.75;;
18657;SDS011;9458;50.942;5.074;2023-04-08T12:24:05;23.02;;;17.58;;
18657;SDS011;9458;50.942;5.074;2023-04-08T12:26:34;20.90;;;17.05;;
18657;SDS011;9458;50.942;5.074;2023-04-08T12:29:03;22.92;;;16.67;;
18657;SDS011;9458;50.942;5.074;2023-04-08T12:31:32;18.60;;;16.35;;
18657;SDS011;9458;50.942;5.074;2023-04-08T12:34:02;19.95;;;15.85;;
18657;SDS011;9458;50.942;5.074;2023-04-08T12:36:32;20.65;;;16.35;;
18657;SDS011;9458;50.942;5.074;2023-04-08T12:39:01;18.45;;;15.45;;
18657;SDS011;9458;50.942;5.074;2023-04-08T12:41:28;20.05;;;16.38;;
18657;SDS011;9458;50.942;5.074;2023-04-08T12:43:56;17.33;;;14.90;;
18657;SDS011;9458;50.942;5.074;2023-04-08T12:46:23;20.98;;;16.75;;
18657;SDS011;9458;50.942;5.074;2023-04-08T12:48:53;19.35;;;16.42;;
18657;SDS011;9458;50.942;5.074;2023-04-08T12:51:21;19.30;;;16.48;;
18657;SDS011;9458;50.942;5.074;2023-04-08T12:53:50;19.50;;;16.17;;
18657;SDS011;9458;50.942;5.074;2023-04-08T12:56:20;20.13;;;16.65;;
18657;SDS011;9458;50.942;5.074;2023-04-08T12:58:48;18.63;;;16.17;;
18657;SDS011;9458;50.942;5.074;2023-04-08T13:01:16;21.83;;;16.65;;
18657;SDS011;9458;50.942;5.074;2023-04-08T13:03:43;17.20;;;14.70;;
18657;SDS011;9458;50.942;5.074;2023-04-08T13:06:13;17.48;;;14.60;;
18657;SDS011;9458;50.942;5.074;2023-04-08T13:08:41;18.10;;;15.57;;
18657;SDS011;9458;50.942;5.074;2023-04-08T13:11:09;18.80;;;15.05;;
18657;SDS011;9458;50.942;5.074;2023-04-08T13:13:38;19.75;;;15.90;;
18657;SDS011;9458;50.942;5.074;2023-04-08T13:16:06;15.57;;;13.57;;
18657;SDS011;9458;50.942;5.074;2023-04-08T13:18:34;16.05;;;14.13;;
18657;SDS011;9458;50.942;5.074;2023-04-08T13:21:02;19.85;;;14.45;;
18657;SDS011;9458;50.942;5.074;2023-04-08T13:23:32;15.63;;;13.98;;
18657;SDS011;9458;50.942;5.074;2023-04-08T13:26:01;14.02;;;12.55;;
18657;SDS011;9458;50.942;5.074;2023-04-08T13:28:39;15.55;;;13.30;;
18657;SDS011;9458;50.942;5.074;2023-04-08T13:31:06;17.38;;;14.20;;
18657;SDS011;9458;50.942;5.074;2023-04-08T13:33:34;18.55;;;15.27;;
18657;SDS011;9458;50.942;5.074;2023-04-08T13:36:02;18.15;;;14.45;;
18657;SDS011;9458;50.942;5.074;2023-04-08T13:38:30;21.73;;;16.25;;
18657;SDS011;9458;50.942;5.074;2023-04-08T13:40:59;17.67;;;15.77;;
18657;SDS011;9458;50.942;5.074;2023-04-08T13:43:26;16.15;;;14.20;;
18657;SDS011;9458;50.942;5.074;2023-04-08T13:45:54;14.95;;;13.40;;
18657;SDS011;9458;50.942;5.074;2023-04-08T13:48:22;16.10;;;12.40;;
18657;SDS011;9458;50.942;5.074;2023-04-08T13:50:50;12.85;;;11.43;;
18657;SDS011;9458;50.942;5.074;2023-04-08T13:53:18;13.23;;;11.15;;
18657;SDS011;9458;50.942;5.074;2023-04-08T13:55:46;13.90;;;11.85;;
18657;SDS011;9458;50.942;5.074;2023-04-08T13:58:20;15.07;;;12.25;;
18657;SDS011;9458;50.942;5.074;2023-04-08T14:00:49;16.23;;;14.32;;
18657;SDS011;9458;50.942;5.074;2023-04-08T14:03:18;17.10;;;13.80;;
18657;SDS011;9458;50.942;5.074;2023-04-08T14:05:48;18.48;;;14.02;;
18657;SDS011;9458;50.942;5.074;2023-04-08T14:08:16;17.20;;;13.40;;
18657;SDS011;9458;50.942;5.074;2023-04-08T14:10:50;18.45;;;15.23;;
18657;SDS011;9458;50.942;5.074;2023-04-08T14:13:17;16.88;;;15.07;;
18657;SDS011;9458;50.942;5.074;2023-04-08T14:15:47;17.30;;;14.57;;
18657;SDS011;9458;50.942;5.074;2023-04-08T14:18:17;16.10;;;14.40;;
18657;SDS011;9458;50.942;5.074;2023-04-08T14:20:45;17.15;;;14.25;;
18657;SDS011;9458;50.942;5.074;2023-04-08T14:23:12;15.38;;;13.88;;
18657;SDS011;9458;50.942;5.074;2023-04-08T14:25:41;16.45;;;14.75;;
18657;SDS011;9458;50.942;5.074;2023-04-08T14:28:09;14.40;;;12.90;;
18657;SDS011;9458;50.942;5.074;2023-04-08T14:30:37;15.25;;;13.65;;
18657;SDS011;9458;50.942;5.074;2023-04-08T14:33:06;14.95;;;13.38;;
18657;SDS011;9458;50.942;5.074;2023-04-08T14:35:33;16.30;;;13.40;;
18657;SDS011;9458;50.942;5.074;2023-04-08T14:38:01;14.25;;;12.35;;
18657;SDS011;9458;50.942;5.074;2023-04-08T14:40:28;16.38;;;12.50;;
18657;SDS011;9458;50.942;5.074;2023-04-08T14:42:56;13.02;;;11.73;;
18657;SDS011;9458;50.942;5.074;2023-04-08T14:45:23;13.05;;;11.68;;
18657;SDS011;9458;50.942;5.074;2023-04-08T14:47:51;14.00;;;11.50;;
18657;SDS011;9458;50.942;5.074;2023-04-08T14:50:22;11.55;;;10.45;;